Time;durP1;ratioP1;P1;durP2;ratioP2;P2;SDS_P1;SDS_P2;PMS_P1;PMS_P2;Temp;Humidity;BMP_temperature;BMP_pressure;BME280_temperature;BME280_humidity;BME280_pressure;Samples;Min_cycle;Max_cycle;Signal;HPM_P1;HPM_P2
2022/01/16 00:00:55;;;;;;;20.25;14.57;;;;;;;6.17;64.92;102323.88;5091704;28;20044;-62
2022/01/16 00:06:13;;;;;;;21.17;14.70;;;;;;;6.15;64.84;102349.06;5103098;28;20072;-62
2022/01/16 00:08:40;;;;;;;18.02;12.80;;;;;;;6.12;64.68;102341.34;5102596;28;20044;-62
2022/01/16 00:11:11;;;;;;;22.17;15.70;;;;;;;6.14;64.72;102355.38;5092004;28;20139;-62
2022/01/16 00:13:39;;;;;;;21.13;14.07;;;;;;;6.12;64.36;102354.69;5102996;28;20264;-62
2022/01/16 00:16:07;;;;;;;22.08;14.63;;;;;;;6.11;64.52;102353.03;5102328;28;20067;-62
2022/01/16 00:18:48;;;;;;;22.13;15.07;;;;;;;6.09;64.82;102361.19;5101132;28;20052;-61
2022/01/16 00:21:18;;;;;;;21.98;15.10;;;;;;;6.08;64.77;102346.16;5099638;28;20062;-62
2022/01/16 00:23:46;;;;;;;20.58;14.55;;;;;;;6.08;64.75;102343.50;5101327;28;20055;-62
2022/01/16 00:26:15;;;;;;;22.98;14.52;;;;;;;6.07;64.68;102338.31;5101868;28;20052;-62
2022/01/16 00:28:43;;;;;;;24.63;16.08;;;;;;;6.06;64.72;102337.47;5102210;28;20048;-61
2022/01/16 00:31:11;;;;;;;20.80;14.57;;;;;;;6.05;64.74;102324.28;5101814;28;20067;-62
2022/01/16 00:33:42;;;;;;;21.73;14.30;;;;;;;6.04;64.83;102328.78;5098576;28;20058;-62
2022/01/16 00:36:11;;;;;;;23.50;15.52;;;;;;;6.00;64.65;102335.44;5101385;28;20044;-62
2022/01/16 00:38:40;;;;;;;21.15;14.13;;;;;;;6.03;64.68;102344.94;5101960;28;20071;-62
2022/01/16 00:41:08;;;;;;;20.30;14.43;;;;;;;6.03;64.69;102339.63;5101399;28;20051;-62
2022/01/16 00:43:37;;;;;;;22.52;15.23;;;;;;;6.02;64.66;102340.63;5091948;28;20056;-62
2022/01/16 00:46:05;;;;;;;21.75;14.40;;;;;;;6.01;64.70;102334.44;5101400;28;20070;-62
2022/01/16 00:48:33;;;;;;;20.48;14.32;;;;;;;6.01;64.47;102326.44;5101940;28;20093;-62
2022/01/16 00:51:01;;;;;;;21.92;14.57;;;;;;;6.01;64.57;102325.59;5101336;28;20062;-62
2022/01/16 00:53:29;;;;;;;22.95;14.40;;;;;;;6.01;64.76;102352.28;5102202;28;20044;-62
2022/01/16 00:55:56;;;;;;;22.30;15.02;;;;;;;6.00;64.65;102343.44;5100155;28;20107;-62
2022/01/16 00:58:24;;;;;;;22.15;15.15;;;;;;;5.98;64.42;102320.56;5102195;28;20097;-62
2022/01/16 01:00:54;;;;;;;20.98;13.88;;;;;;;5.97;64.65;102303.72;5100732;28;20048;-62
2022/01/16 01:03:22;;;;;;;23.10;13.98;;;;;;;5.98;64.59;102286.72;5101953;28;20203;-62
2022/01/16 01:05:50;;;;;;;20.67;13.88;;;;;;;5.97;64.56;102308.22;5098805;28;20075;-62
2022/01/16 01:08:18;;;;;;;20.20;13.82;;;;;;;5.96;64.76;102303.88;5101982;28;20461;-62
2022/01/16 01:10:49;;;;;;;25.65;15.55;;;;;;;5.95;64.84;102319.03;5100217;28;20461;-62
2022/01/16 01:13:23;;;;;;;21.15;13.82;;;;;;;5.95;64.51;102310.19;5102259;28;20044;-62
2022/01/16 01:15:58;;;;;;;23.95;13.95;;;;;;;5.94;64.73;102327.22;5100288;28;20040;-62
2022/01/16 01:18:28;;;;;;;22.08;15.10;;;;;;;5.92;64.77;102306.00;5101972;28;20109;-62
2022/01/16 01:20:57;;;;;;;25.20;15.02;;;;;;;5.95;65.11;102307.53;5101293;28;20097;-62
2022/01/16 01:23:25;;;;;;;21.13;14.20;;;;;;;5.94;64.77;102292.53;5101905;28;20063;-63
2022/01/16 01:25:53;;;;;;;23.15;14.88;;;;;;;5.93;64.76;102301.50;5100222;28;20036;-62
2022/01/16 01:28:20;;;;;;;23.73;14.48;;;;;;;5.92;64.63;102314.03;5102069;28;20060;-62
2022/01/16 01:30:48;;;;;;;25.38;14.45;;;;;;;5.91;64.61;102304.34;5100529;28;20453;-62
2022/01/16 01:33:19;;;;;;;24.88;15.95;;;;;;;5.90;64.72;102318.66;5095199;28;20048;-62
2022/01/16 01:35:48;;;;;;;24.77;14.82;;;;;;;5.92;64.72;102287.34;5100375;28;20044;-62
2022/01/16 01:38:18;;;;;;;22.77;13.98;;;;;;;5.91;64.62;102234.97;5099420;28;20086;-62
2022/01/16 01:40:48;;;;;;;22.63;15.23;;;;;;;5.90;64.38;102227.13;5094382;28;20047;-62
2022/01/16 01:51:36;;;;;;;;;;;;;;;5.92;64.51;102259.81;5102382;28;20104;-62
2022/01/16 01:54:06;;;;;;;22.90;15.10;;;;;;;5.91;64.44;102279.50;5100310;28;19931;-62
2022/01/16 01:56:35;;;;;;;25.20;15.20;;;;;;;5.88;64.37;102285.94;5101222;28;20055;-62
2022/01/16 01:59:04;;;;;;;23.15;14.30;;;;;;;5.87;64.45;102305.63;5101065;28;20116;-62
2022/01/16 02:01:33;;;;;;;28.52;17.15;;;;;;;5.86;64.49;102299.44;5101500;28;20063;-62
2022/01/16 02:04:01;;;;;;;24.95;14.85;;;;;;;5.85;64.87;102303.09;5101003;28;20052;-62
2022/01/16 02:06:30;;;;;;;25.58;15.52;;;;;;;5.81;64.38;102308.91;5101954;28;20067;-62
2022/01/16 02:09:01;;;;;;;29.85;16.60;;;;;;;5.85;64.52;102308.44;5100653;28;20051;-62
2022/01/16 02:11:32;;;;;;;30.77;17.08;;;;;;;5.83;64.38;102313.09;5099455;28;20044;-62
2022/01/16 02:14:07;;;;;;;29.55;16.65;;;;;;;5.82;64.48;102314.09;5098373;28;20119;-62
2022/01/16 02:28:05;;;;;;;37.50;17.83;;;;;;;5.73;64.53;102322.16;5104847;28;20120;-62
2022/01/16 02:36:07;;;;;;;35.28;18.83;;;;;;;5.77;64.64;102336.88;5096867;28;20048;-61
2022/01/16 02:38:36;;;;;;;37.17;20.52;;;;;;;5.75;64.86;102337.03;5104385;28;20040;-62
2022/01/16 02:41:05;;;;;;;38.88;18.65;;;;;;;5.75;64.77;102334.38;5103227;28;20044;-62
2022/01/16 02:43:35;;;;;;;41.85;19.88;;;;;;;5.73;64.89;102317.66;5094866;28;20049;-62
2022/01/16 02:48:50;;;;;;;38.72;19.42;;;;;;;5.64;64.91;102283.09;5103316;28;20048;-62
2022/01/16 02:51:20;;;;;;;40.58;20.63;;;;;;;5.71;64.80;102302.81;5097588;28;20052;-62
2022/01/16 02:53:50;;;;;;;37.20;19.80;;;;;;;5.72;64.63;102312.50;5104012;28;20048;-62
2022/01/16 02:56:20;;;;;;;39.05;19.45;;;;;;;5.72;65.05;102309.81;5103629;28;20048;-62
2022/01/16 02:58:49;;;;;;;43.38;20.77;;;;;;;5.71;65.16;102297.47;5099833;28;21465;-61
2022/01/16 03:01:17;;;;;;;42.00;20.13;;;;;;;5.69;64.69;102286.13;5103749;28;20040;-62
2022/01/16 03:03:45;;;;;;;37.60;20.45;;;;;;;5.69;65.15;102280.78;5103615;28;20048;-62
2022/01/16 03:06:14;;;;;;;41.03;20.92;;;;;;;5.69;65.02;102278.13;5104084;28;20055;-62
2022/01/16 03:08:42;;;;;;;43.80;20.85;;;;;;;5.69;65.11;102260.28;5103992;28;20086;-62
2022/01/16 03:11:23;;;;;;;43.20;19.92;;;;;;;5.69;64.68;102262.97;5103249;28;20381;-62
2022/01/16 03:13:51;;;;;;;42.00;20.90;;;;;;;5.69;64.84;102257.63;5100913;28;20127;-62
2022/01/16 03:16:22;;;;;;;39.03;20.73;;;;;;;5.69;65.12;102260.28;5103841;28;20098;-62
2022/01/16 03:22:02;;;;;;;35.35;19.50;;;;;;;5.67;65.23;102253.44;5099710;28;20056;-62
2022/01/16 03:24:33;;;;;;;38.95;20.67;;;;;;;5.66;65.38;102255.28;5103251;28;20044;-62
2022/01/16 03:27:05;;;;;;;40.28;21.23;;;;;;;5.66;65.38;102249.09;5103554;28;20540;-62
2022/01/16 03:29:34;;;;;;;39.72;20.48;;;;;;;5.67;65.24;102259.59;5102753;28;20078;-62
2022/01/16 03:32:05;;;;;;;41.88;21.15;;;;;;;5.67;65.29;102256.09;5097597;28;20079;-62
2022/01/16 03:34:33;;;;;;;39.47;20.75;;;;;;;5.67;65.22;102259.59;5102885;28;20389;-62
2022/01/16 03:37:01;;;;;;;40.65;20.20;;;;;;;5.69;64.84;102249.63;5099805;28;20070;-62
2022/01/16 03:39:29;;;;;;;37.42;20.50;;;;;;;5.65;65.01;102256.25;5102559;28;20059;-62
2022/01/16 03:41:59;;;;;;;41.25;21.85;;;;;;;5.68;65.44;102255.13;5102278;28;20057;-62
2022/01/16 03:44:29;;;;;;;36.90;20.48;;;;;;;5.67;65.42;102243.59;5102606;28;20048;-62
2022/01/16 03:46:57;;;;;;;40.90;19.63;;;;;;;5.68;65.29;102247.09;5103407;28;20076;-62
2022/01/16 03:49:30;;;;;;;38.85;20.52;;;;;;;5.67;65.51;102248.94;5101786;28;20044;-62
2022/01/16 03:51:59;;;;;;;40.30;22.17;;;;;;;5.68;65.10;102258.63;5102486;28;20048;-61
2022/01/16 03:54:29;;;;;;;38.40;19.90;;;;;;;5.64;65.43;102249.25;5102754;28;20044;-61
2022/01/16 03:56:57;;;;;;;37.10;21.33;;;;;;;5.68;65.44;102247.09;5102550;28;20040;-62
2022/01/16 03:59:25;;;;;;;33.65;19.90;;;;;;;5.68;65.38;102247.94;5101983;28;20437;-62
2022/01/16 04:01:55;;;;;;;39.15;21.25;;;;;;;5.68;65.59;102250.63;5093829;28;20059;-62
2022/01/16 04:04:22;;;;;;;36.25;20.42;;;;;;;5.65;65.15;102250.94;5101808;28;20063;-62
2022/01/16 04:06:50;;;;;;;36.95;19.60;;;;;;;5.65;65.45;102245.59;5101174;28;20113;-62
2022/01/16 04:09:18;;;;;;;39.10;20.77;;;;;;;5.66;65.39;102259.75;5101837;28;20087;-62
2022/01/16 04:11:52;;;;;;;32.85;18.90;;;;;;;5.65;65.55;102256.25;5097149;28;20102;-62
2022/01/16 04:14:24;;;;;;;34.15;19.48;;;;;;;5.66;65.37;102255.28;5102380;28;20071;-62
2022/01/16 04:16:53;;;;;;;35.67;20.75;;;;;;;5.68;65.68;102260.44;5102339;28;20048;-62
2022/01/16 04:19:21;;;;;;;33.03;19.58;;;;;;;5.68;65.46;102263.13;5101674;28;20058;-62
2022/01/16 04:21:49;;;;;;;33.13;19.95;;;;;;;5.65;65.84;102256.25;5101881;28;20055;-62
2022/01/16 04:24:17;;;;;;;37.30;21.10;;;;;;;5.66;65.69;102257.94;5102185;28;20086;-62
2022/01/16 04:26:45;;;;;;;32.45;21.02;;;;;;;5.65;65.70;102255.41;5101863;28;20082;-62
2022/01/16 04:29:12;;;;;;;34.03;20.77;;;;;;;5.65;65.61;102258.09;5101774;28;20074;-61
2022/01/16 04:31:40;;;;;;;36.67;22.08;;;;;;;5.65;65.54;102255.41;5101908;28;20079;-61
2022/01/16 04:34:09;;;;;;;33.20;20.60;;;;;;;5.64;65.76;102254.59;5101973;28;20055;-62
2022/01/16 04:36:38;;;;;;;34.00;19.00;;;;;;;5.65;65.49;102258.09;5102189;28;20075;-62
2022/01/16 04:39:10;;;;;;;34.17;19.65;;;;;;;5.65;65.75;102258.09;5101178;28;20047;-62
2022/01/16 04:44:23;;;;;;;31.65;19.45;;;;;;;5.62;65.73;102253.91;5090920;28;20452;-62
2022/01/16 04:46:50;;;;;;;35.55;20.80;;;;;;;5.63;65.89;102249.41;5102128;28;20040;-62
2022/01/16 04:49:20;;;;;;;33.45;20.08;;;;;;;5.63;66.07;102247.56;5102126;28;20079;-62
2022/01/16 04:51:48;;;;;;;33.92;20.63;;;;;;;5.63;66.09;102247.56;5102160;28;20076;-62
2022/01/16 04:54:16;;;;;;;34.78;20.52;;;;;;;5.63;66.04;102246.75;5101970;28;20078;-62
2022/01/16 04:56:44;;;;;;;35.58;20.60;;;;;;;5.63;66.26;102241.41;5101481;28;20051;-62
2022/01/16 04:59:11;;;;;;;33.80;21.38;;;;;;;5.63;65.79;102233.41;5101623;28;20048;-62
2022/01/16 05:01:39;;;;;;;31.35;19.58;;;;;;;5.62;66.04;102245.91;5100969;28;20055;-62
2022/01/16 05:04:07;;;;;;;32.45;20.45;;;;;;;5.62;65.86;102247.72;5101062;28;20056;-62
2022/01/16 05:06:36;;;;;;;36.78;20.92;;;;;;;5.63;65.84;102244.06;5102076;28;20052;-62
2022/01/16 05:09:05;;;;;;;32.80;19.67;;;;;;;5.61;66.37;102233.56;5101314;28;20055;-62
2022/01/16 05:11:32;;;;;;;31.50;18.58;;;;;;;5.61;66.07;102236.22;5101080;28;20168;-62
2022/01/16 05:16:46;;;;;;;32.25;20.23;;;;;;;5.60;66.46;102229.22;5099269;28;20083;-62
2022/01/16 05:19:17;;;;;;;32.33;18.95;;;;;;;5.60;66.27;102234.56;5101620;28;20087;-62
2022/01/16 05:21:46;;;;;;;37.17;21.48;;;;;;;5.62;65.77;102232.56;5101324;28;20404;-61
2022/01/16 05:24:14;;;;;;;33.20;19.58;;;;;;;5.62;66.42;102227.22;5101080;28;20053;-61
2022/01/16 05:26:44;;;;;;;34.22;20.92;;;;;;;5.62;65.92;102229.06;5101537;28;20044;-62
2022/01/16 05:29:13;;;;;;;33.97;20.48;;;;;;;5.61;66.23;102232.72;5101153;28;20070;-62
2022/01/16 05:31:44;;;;;;;28.70;18.73;;;;;;;5.60;66.18;102223.88;5101045;28;20047;-62
2022/01/16 05:34:13;;;;;;;32.22;20.30;;;;;;;5.60;66.43;102231.88;5100802;28;20299;-61
2022/01/16 05:36:41;;;;;;;33.80;20.30;;;;;;;5.61;66.46;102243.38;5099369;28;20044;-62
2022/01/16 05:39:11;;;;;;;33.78;21.38;;;;;;;5.62;66.17;102231.72;5100920;28;20052;-62
2022/01/16 05:41:39;;;;;;;35.78;22.25;;;;;;;5.60;66.01;102231.88;5100989;28;20477;-62
2022/01/16 05:44:07;;;;;;;33.33;21.08;;;;;;;5.61;66.04;102244.22;5100770;28;20048;-62
2022/01/16 05:46:34;;;;;;;34.90;20.73;;;;;;;5.63;66.44;102242.25;5101760;28;20074;-62
2022/01/16 05:49:03;;;;;;;33.20;19.63;;;;;;;5.62;66.29;102245.91;5100966;28;20103;-62
2022/01/16 05:51:30;;;;;;;32.83;19.48;;;;;;;5.62;66.19;102258.41;5102615;28;20051;-62
2022/01/16 05:53:58;;;;;;;33.72;21.13;;;;;;;5.61;66.77;102254.06;5104657;28;20078;-62
2022/01/16 05:56:27;;;;;;;34.92;20.77;;;;;;;5.59;66.34;102254.22;5104661;28;20052;-62
2022/01/16 05:58:55;;;;;;;36.97;20.98;;;;;;;5.62;66.59;102263.72;5104403;28;20367;-62
2022/01/16 06:01:23;;;;;;;34.25;20.20;;;;;;;5.64;66.73;102256.41;5097155;28;20060;-62
2022/01/16 06:03:50;;;;;;;33.85;20.77;;;;;;;5.62;66.52;102250.41;5104187;28;20087;-62
2022/01/16 06:06:18;;;;;;;37.00;21.45;;;;;;;5.61;66.33;102251.38;5104872;28;20081;-61
2022/01/16 06:08:46;;;;;;;31.88;20.85;;;;;;;5.62;66.48;102255.72;5104851;28;20070;-62
2022/01/16 06:11:14;;;;;;;37.78;21.67;;;;;;;5.61;66.67;102254.06;5103817;28;20121;-62
2022/01/16 06:13:43;;;;;;;33.88;21.10;;;;;;;5.62;66.74;102258.41;5104972;28;20044;-62
2022/01/16 06:16:11;;;;;;;35.35;21.63;;;;;;;5.61;66.91;102251.38;5104413;28;20048;-61
2022/01/16 06:18:39;;;;;;;37.40;21.52;;;;;;;5.61;66.79;102252.22;4396060;28;10001006;-62
2022/01/16 06:21:07;;;;;;;32.67;20.67;;;;;;;5.62;66.66;102255.72;5100414;28;20052;-61
2022/01/16 06:23:34;;;;;;;35.15;21.40;;;;;;;5.60;66.83;102244.38;5100556;28;20052;-61
2022/01/16 06:26:02;;;;;;;35.45;21.08;;;;;;;5.60;67.03;102252.38;5099389;28;20466;-61
2022/01/16 06:28:31;;;;;;;38.08;23.00;;;;;;;5.60;67.23;102253.22;5101582;28;20258;-61
2022/01/16 06:31:04;;;;;;;34.47;21.23;;;;;;;5.58;66.84;102252.53;5099894;28;20073;-61
2022/01/16 06:33:32;;;;;;;33.28;21.33;;;;;;;5.59;67.21;102259.53;5100905;28;20055;-60
2022/01/16 06:36:01;;;;;;;34.33;21.27;;;;;;;5.61;66.92;102264.72;5100008;28;20488;-62
2022/01/16 06:38:29;;;;;;;41.13;22.65;;;;;;;5.63;67.31;102274.25;5100678;28;20058;-61
2022/01/16 06:40:57;;;;;;;32.90;21.60;;;;;;;5.72;66.82;102280.47;5100147;28;20074;-62
2022/01/16 06:43:25;;;;;;;35.75;22.52;;;;;;;5.84;66.39;102282.75;5100166;28;20075;-59
2022/01/16 06:45:54;;;;;;;37.65;21.08;;;;;;;5.98;65.90;102285.88;5100357;28;20083;-60
2022/01/16 06:48:23;;;;;;;35.05;21.85;;;;;;;6.14;65.37;102275.31;5100312;28;20112;-61
2022/01/16 06:50:51;;;;;;;39.78;24.17;;;;;;;6.27;64.87;102278.38;5099600;28;20116;-63
2022/01/16 06:53:19;;;;;;;35.78;21.98;;;;;;;6.39;64.47;102276.28;5099105;28;20080;-63
2022/01/16 06:55:47;;;;;;;33.05;20.55;;;;;;;6.53;63.91;102281.84;5099971;28;20388;-64
2022/01/16 06:58:17;;;;;;;32.78;20.80;;;;;;;6.68;63.40;102294.59;5100065;28;20131;-61
2022/01/16 07:00:46;;;;;;;36.83;22.33;;;;;;;6.81;63.01;102289.66;5099311;28;20059;-62
2022/01/16 07:03:14;;;;;;;34.40;20.98;;;;;;;6.91;62.85;102285.00;5099560;28;20048;-61
2022/01/16 07:05:45;;;;;;;33.60;21.23;;;;;;;7.02;62.83;102289.19;5098847;28;20115;-60
2022/01/16 07:08:13;;;;;;;33.75;21.23;;;;;;;7.11;62.03;102290.88;5099656;28;20615;-61
2022/01/16 07:10:41;;;;;;;35.20;20.40;;;;;;;7.12;62.46;102290.72;5098375;28;20056;-62
2022/01/16 07:13:08;;;;;;;32.85;20.70;;;;;;;7.17;61.88;102298.25;5098885;28;20092;-62
2022/01/16 07:15:36;;;;;;;37.67;22.55;;;;;;;7.05;63.06;102300.38;5098724;28;20048;-58
2022/01/16 07:18:04;;;;;;;39.97;23.42;;;;;;;6.92;63.78;102316.09;5098896;28;20072;-62
2022/01/16 07:20:32;;;;;;;35.03;22.08;;;;;;;6.92;63.54;102320.59;5099372;28;20528;-62
2022/01/16 07:23:01;;;;;;;35.13;21.02;;;;;;;6.79;63.76;102326.38;5101589;28;20044;-62
2022/01/16 07:25:29;;;;;;;39.83;22.55;;;;;;;6.70;64.16;102327.34;5099263;28;20051;-62
2022/01/16 07:27:57;;;;;;;37.35;21.85;;;;;;;6.57;65.03;102337.63;5094044;28;20051;-62
2022/01/16 07:30:24;;;;;;;38.80;21.52;;;;;;;6.47;64.97;102343.91;5098205;28;20105;-62
2022/01/16 07:32:52;;;;;;;36.80;22.13;;;;;;;6.41;65.13;102339.22;5099878;28;20048;-62
2022/01/16 07:35:20;;;;;;;38.25;23.70;;;;;;;6.34;65.49;102351.53;5097668;28;20105;-62
2022/01/16 07:38:07;;;;;;;35.42;22.00;;;;;;;6.29;65.90;102366.34;5095988;28;20072;-62
2022/01/16 07:40:36;;;;;;;35.67;22.00;;;;;;;6.28;65.58;102362.00;5097959;28;20047;-62
2022/01/16 07:43:04;;;;;;;35.03;21.67;;;;;;;6.22;65.96;102354.59;5095232;28;20114;-62
2022/01/16 07:45:32;;;;;;;34.13;21.42;;;;;;;6.17;66.08;102352.41;5098290;28;20079;-63
2022/01/16 07:48:00;;;;;;;32.03;19.65;;;;;;;6.12;66.21;102360.88;5099622;28;20063;-62
2022/01/16 07:50:28;;;;;;;34.47;21.20;;;;;;;6.11;66.48;102363.69;5098267;28;20473;-62
2022/01/16 07:52:56;;;;;;;36.25;20.45;;;;;;;6.06;66.76;102372.16;5099327;28;20060;-62
2022/01/16 07:55:26;;;;;;;34.47;21.10;;;;;;;6.06;66.48;102374.84;5097164;28;21362;-62
2022/01/16 07:57:54;;;;;;;38.53;21.83;;;;;;;6.03;66.80;102382.31;5098845;28;20040;-61
2022/01/16 08:00:32;;;;;;;36.15;20.75;;;;;;;6.00;66.69;102379.97;5097686;28;20107;-61
2022/01/16 08:03:00;;;;;;;33.70;19.77;;;;;;;5.99;67.27;102384.47;5096867;28;20355;-61
2022/01/16 08:05:28;;;;;;;35.33;21.00;;;;;;;6.00;67.04;102390.63;5097964;28;20048;-65
2022/01/16 08:07:56;;;;;;;36.38;21.58;;;;;;;5.99;67.25;102383.63;5091902;28;20040;-61
2022/01/16 08:10:25;;;;;;;37.47;21.17;;;;;;;5.98;67.08;102385.44;5095425;28;20151;-60
2022/01/16 08:12:53;;;;;;;36.60;19.73;;;;;;;5.94;67.01;102376.06;5096406;28;20582;-62
2022/01/16 08:15:21;;;;;;;33.97;19.58;;;;;;;5.96;67.10;102374.09;5095326;28;20059;-63
2022/01/16 08:17:48;;;;;;;30.85;18.63;;;;;;;5.94;67.16;102378.75;5097542;28;20079;-61
2022/01/16 08:20:16;;;;;;;35.30;20.15;;;;;;;5.94;67.47;102372.56;5097381;28;20567;-61
2022/01/16 08:22:45;;;;;;;36.67;21.52;;;;;;;5.94;67.47;102369.91;5093999;28;20308;-62
2022/01/16 08:25:13;;;;;;;34.95;19.50;;;;;;;5.92;67.64;102362.03;5097317;28;20139;-63
2022/01/16 08:27:43;;;;;;;34.88;19.83;;;;;;;5.91;67.36;102360.38;5098360;28;20165;-59
2022/01/16 08:30:12;;;;;;;33.35;20.45;;;;;;;5.90;67.77;102364.03;5095968;28;20056;-58
2022/01/16 08:32:43;;;;;;;40.33;21.73;;;;;;;5.90;67.65;102363.19;5090397;28;20086;-57
2022/01/16 08:35:12;;;;;;;34.70;20.08;;;;;;;5.91;67.69;102355.03;5098080;28;20297;-58
2022/01/16 08:37:40;;;;;;;32.92;19.60;;;;;;;5.90;67.73;102361.38;5097706;28;20105;-58
2022/01/16 08:40:09;;;;;;;37.05;20.45;;;;;;;5.90;67.81;102369.38;5095812;28;20055;-58
2022/01/16 08:42:40;;;;;;;35.58;21.23;;;;;;;5.88;68.11;102371.31;5097688;28;20056;-58
2022/01/16 08:45:10;;;;;;;33.97;20.85;;;;;;;5.86;67.85;102370.63;5095726;28;20325;-59
2022/01/16 08:47:38;;;;;;;34.33;19.75;;;;;;;5.83;68.15;102370.94;5097687;28;20113;-58
2022/01/16 08:50:08;;;;;;;35.95;20.00;;;;;;;5.85;67.86;102368.97;5097842;28;20048;-59
2022/01/16 08:52:36;;;;;;;38.20;22.23;;;;;;;5.85;68.27;102374.28;5097543;28;20318;-59
2022/01/16 08:55:05;;;;;;;41.05;22.10;;;;;;;5.86;69.59;102387.47;5096416;28;20521;-57
2022/01/16 08:57:33;;;;;;;42.55;20.73;;;;;;;5.87;69.29;102386.50;5096948;28;20082;-58
2022/01/16 09:00:00;;;;;;;46.35;21.67;;;;;;;5.87;69.31;102388.31;5096809;28;20054;-56
2022/01/16 09:02:30;;;;;;;35.13;21.15;;;;;;;5.87;69.30;102383.81;5091928;28;20055;-56
2022/01/16 09:04:57;;;;;;;35.30;20.20;;;;;;;5.88;68.91;102396.16;5097554;28;20056;-55
2022/01/16 09:07:25;;;;;;;37.58;20.83;;;;;;;5.91;69.10;102387.06;5097134;28;20079;-56
2022/01/16 09:09:53;;;;;;;39.25;21.50;;;;;;;5.88;68.84;102390.84;5096250;28;20048;-56
2022/01/16 09:12:21;;;;;;;40.95;21.33;;;;;;;5.94;68.91;102401.91;5097338;28;20052;-57
2022/01/16 09:14:49;;;;;;;36.47;20.83;;;;;;;5.93;68.56;102405.59;5096398;28;20544;-57
2022/01/16 09:17:16;;;;;;;35.97;20.83;;;;;;;5.94;68.60;102412.59;5093367;28;20056;-56
2022/01/16 09:19:46;;;;;;;39.17;22.05;;;;;;;5.95;68.84;102406.25;5096457;28;20112;-55
2022/01/16 09:22:16;;;;;;;37.88;21.25;;;;;;;5.94;68.91;102421.44;5096823;28;20055;-57
2022/01/16 09:24:43;;;;;;;39.28;22.27;;;;;;;6.04;68.62;102421.34;5097145;28;20063;-57
2022/01/16 09:27:11;;;;;;;40.75;21.98;;;;;;;6.17;68.09;102419.97;5101107;28;20076;-57
2022/01/16 09:29:39;;;;;;;40.78;22.58;;;;;;;6.25;68.10;102421.03;5100881;28;20099;-57
2022/01/16 09:32:07;;;;;;;42.20;23.08;;;;;;;6.28;67.79;102428.72;5101967;28;20543;-57
2022/01/16 09:34:35;;;;;;;40.03;22.20;;;;;;;6.28;67.77;102426.91;5100963;28;20068;-56
2022/01/16 09:37:08;;;;;;;42.45;23.27;;;;;;;6.26;67.86;102423.53;5101657;28;20505;-57
2022/01/16 09:39:36;;;;;;;50.60;25.30;;;;;;;6.23;68.60;102421.19;5100305;28;20067;-57
2022/01/16 09:42:06;;;;;;;51.17;26.13;;;;;;;6.22;68.39;102432.03;5100773;28;20365;-55
2022/01/16 09:44:36;;;;;;;44.45;24.20;;;;;;;6.17;68.61;102427.97;5101546;28;20062;-57
2022/01/16 09:47:05;;;;;;;47.60;24.83;;;;;;;6.15;68.81;102439.81;5101500;28;20083;-58
2022/01/16 09:49:32;;;;;;;53.53;24.80;;;;;;;6.16;68.73;102434.31;5100183;28;20059;-58
2022/01/16 09:52:00;;;;;;;51.72;25.65;;;;;;;6.11;69.13;102451.78;5101590;28;20071;-60
2022/01/16 09:54:29;;;;;;;51.90;26.67;;;;;;;6.23;68.93;102457.72;5100888;28;20052;-61
2022/01/16 09:56:57;;;;;;;49.20;25.33;;;;;;;6.38;68.23;102454.34;5101224;28;20048;-59
2022/01/16 09:59:25;;;;;;;58.85;26.73;;;;;;;6.53;67.75;102454.63;5100770;28;20107;-60
2022/01/16 10:01:53;;;;;;;52.22;26.35;;;;;;;6.70;67.22;102452.91;5101358;28;20052;-59
2022/01/16 10:04:31;;;;;;;41.83;22.65;;;;;;;6.81;66.50;102460.66;5097124;28;20139;-58
2022/01/16 10:07:01;;;;;;;53.78;25.98;;;;;;;6.76;66.68;102461.13;5100741;28;20083;-59
2022/01/16 10:09:30;;;;;;;48.20;25.73;;;;;;;6.70;67.46;102463.59;5100008;28;20111;-59
2022/01/16 10:12:14;;;;;;;54.97;26.27;;;;;;;6.62;67.74;102477.72;5100977;28;20052;-59
2022/01/16 10:14:47;;;;;;;48.95;25.83;;;;;;;6.57;68.39;102482.72;5100990;28;20071;-60
2022/01/16 10:17:17;;;;;;;53.15;26.25;;;;;;;6.63;68.26;102482.09;5100173;28;20040;-60
2022/01/16 10:19:45;;;;;;;47.20;25.80;;;;;;;6.80;67.25;102481.22;5101215;28;20059;-60
2022/01/16 10:22:15;;;;;;;44.88;24.55;;;;;;;6.93;67.24;102480.78;5100417;28;20139;-60
2022/01/16 10:24:44;;;;;;;60.10;29.20;;;;;;;7.04;67.11;102485.00;5099040;28;20048;-61
2022/01/16 10:27:19;;;;;;;53.38;26.70;;;;;;;7.13;66.00;102481.38;5097509;28;20044;-58
2022/01/16 10:29:48;;;;;;;50.45;24.35;;;;;;;7.12;66.50;102482.38;5099671;28;20051;-59
2022/01/16 10:32:19;;;;;;;45.92;24.25;;;;;;;7.04;66.57;102493.00;5100728;28;20048;-60
2022/01/16 10:34:48;;;;;;;50.78;25.38;;;;;;;6.99;66.53;102492.66;5100536;28;20188;-61
2022/01/16 10:37:22;;;;;;;54.83;26.27;;;;;;;6.91;67.37;102497.97;4746347;28;10000380;-59
2022/01/16 10:39:58;;;;;;;50.30;25.42;;;;;;;6.82;67.39;102486.38;5101235;28;20056;-61
2022/01/16 10:42:27;;;;;;;50.50;24.63;;;;;;;6.74;67.91;102487.19;5101456;28;20553;-60
2022/01/16 10:44:57;;;;;;;50.22;24.67;;;;;;;6.71;68.09;102494.66;5103498;28;20048;-60
2022/01/16 10:47:39;;;;;;;51.20;25.42;;;;;;;6.68;68.42;102494.97;5104376;28;20047;-60
2022/01/16 10:50:14;;;;;;;49.03;24.33;;;;;;;6.65;68.16;102488.13;5097933;28;20040;-60
2022/01/16 10:52:58;;;;;;;50.67;24.92;;;;;;;6.62;68.63;102485.75;5102958;28;20396;-60
2022/01/16 10:55:36;;;;;;;50.13;24.30;;;;;;;6.58;68.87;102495.06;5103811;28;20074;-61
2022/01/16 10:58:08;;;;;;;52.40;27.02;;;;;;;6.54;68.97;102499.03;5103350;28;20086;-60
2022/01/16 11:00:36;;;;;;;48.35;25.63;;;;;;;6.51;68.37;102488.66;5103190;28;20474;-60
2022/01/16 11:03:06;;;;;;;48.13;24.55;;;;;;;6.48;69.18;102487.16;5094006;28;20046;-61
2022/01/16 11:05:36;;;;;;;49.72;25.42;;;;;;;6.45;69.36;102494.63;5101294;28;20052;-60
2022/01/16 11:08:06;;;;;;;48.22;24.45;;;;;;;6.43;69.40;102494.78;5103673;28;20036;-61
2022/01/16 11:10:37;;;;;;;46.35;23.58;;;;;;;6.46;69.51;102512.31;5102551;28;20052;-60
2022/01/16 11:13:08;;;;;;;47.45;23.33;;;;;;;6.47;69.59;102506.00;5102854;28;20044;-60
2022/01/16 11:15:38;;;;;;;50.13;26.20;;;;;;;6.40;69.52;102510.28;5101380;28;20493;-59
2022/01/16 11:18:08;;;;;;;49.45;24.10;;;;;;;6.39;69.56;102504.09;5103365;28;20042;-60
2022/01/16 11:20:38;;;;;;;45.15;23.35;;;;;;;6.41;70.31;102509.28;5101638;28;20044;-60
2022/01/16 11:23:15;;;;;;;49.85;24.75;;;;;;;6.37;70.06;102514.09;5102957;28;20052;-60
2022/01/16 11:25:45;;;;;;;47.38;24.52;;;;;;;6.38;70.27;102509.59;5102239;28;20044;-59
2022/01/16 11:28:15;;;;;;;46.97;23.85;;;;;;;6.38;70.27;102521.09;5102482;28;20518;-60
2022/01/16 11:30:47;;;;;;;48.15;24.67;;;;;;;6.38;69.99;102513.09;5101788;28;20062;-61
2022/01/16 11:33:22;;;;;;;47.38;23.77;;;;;;;6.37;69.99;102514.09;5103111;28;20040;-60
2022/01/16 11:35:53;;;;;;;46.55;23.92;;;;;;;6.35;70.30;102510.72;5102055;28;20261;-60
2022/01/16 11:38:28;;;;;;;49.03;23.27;;;;;;;6.37;70.16;102508.75;5102574;28;20059;-60
2022/01/16 11:40:57;;;;;;;45.20;23.08;;;;;;;6.43;70.00;102508.13;5101584;28;20579;-60
2022/01/16 11:43:33;;;;;;;48.97;24.30;;;;;;;6.49;69.48;102501.34;5101672;28;20059;-60
2022/01/16 11:46:11;;;;;;;42.78;22.73;;;;;;;6.44;69.67;102482.28;5095541;28;20048;-60
2022/01/16 11:48:50;;;;;;;48.03;23.40;;;;;;;6.49;69.92;102491.50;5102045;28;20090;-60
2022/01/16 11:52:02;;;;;;;44.28;24.65;;;;;;;6.55;69.59;102494.53;5102607;28;20051;-60
2022/01/16 11:54:34;;;;;;;44.63;22.25;;;;;;;6.54;69.56;102499.03;5101762;28;20052;-59
2022/01/16 11:57:07;;;;;;;43.42;23.38;;;;;;;6.54;69.51;102501.72;5089371;28;20054;-60
2022/01/16 11:59:40;;;;;;;44.28;22.40;;;;;;;6.53;69.67;102508.88;5100739;28;20055;-67
2022/01/16 12:02:22;;;;;;;39.90;21.10;;;;;;;6.50;70.14;102498.50;5093864;28;20032;-59
2022/01/16 12:04:53;;;;;;;40.40;21.63;;;;;;;6.63;69.44;102505.28;5100041;28;20083;-59
2022/01/16 12:07:58;;;;;;;40.97;21.25;;;;;;;6.84;68.71;102505.78;5102140;28;20051;-59